sensor_id;sensor_type;location;lat;lon;timestamp;temperature;humidity
73112;HTU21D;61301;51.956;5.876;2023-09-07T00:00:44;28.02;42.12
73112;HTU21D;61301;51.956;5.876;2023-09-07T00:03:13;27.97;42.23
73112;HTU21D;61301;51.956;5.876;2023-09-07T00:05:39;27.96;42.29
73112;HTU21D;61301;51.956;5.876;2023-09-07T00:08:05;27.93;42.32
73112;HTU21D;61301;51.956;5.876;2023-09-07T00:10:32;27.88;42.36
73112;HTU21D;61301;51.956;5.876;2023-09-07T00:13:04;27.84;42.48
73112;HTU21D;61301;51.956;5.876;2023-09-07T00:15:36;27.81;42.54
73112;HTU21D;61301;51.956;5.876;2023-09-07T00:18:02;27.78;42.44
73112;HTU21D;61301;51.956;5.876;2023-09-07T00:20:28;27.74;42.45
73112;HTU21D;61301;51.956;5.876;2023-09-07T00:22:54;27.72;42.52
73112;HTU21D;61301;51.956;5.876;2023-09-07T00:25:21;27.66;42.54
73112;HTU21D;61301;51.956;5.876;2023-09-07T00:27:47;27.60;42.65
73112;HTU21D;61301;51.956;5.876;2023-09-07T00:30:13;27.56;42.79
73112;HTU21D;61301;51.956;5.876;2023-09-07T00:32:40;27.49;43.10
73112;HTU21D;61301;51.956;5.876;2023-09-07T00:35:06;27.41;43.18
73112;HTU21D;61301;51.956;5.876;2023-09-07T00:37:33;27.32;43.41
73112;HTU21D;61301;51.956;5.876;2023-09-07T00:39:59;27.23;43.99
73112;HTU21D;61301;51.956;5.876;2023-09-07T00:42:25;27.13;43.86
73112;HTU21D;61301;51.956;5.876;2023-09-07T00:44:51;27.07;43.89
73112;HTU21D;61301;51.956;5.876;2023-09-07T00:47:17;27.06;43.80
73112;HTU21D;61301;51.956;5.876;2023-09-07T00:49:44;27.06;43.79
73112;HTU21D;61301;51.956;5.876;2023-09-07T00:52:10;27.04;43.77
73112;HTU21D;61301;51.956;5.876;2023-09-07T00:54:37;27.06;43.74
73112;HTU21D;61301;51.956;5.876;2023-09-07T00:57:05;27.04;43.67
73112;HTU21D;61301;51.956;5.876;2023-09-07T00:59:32;27.01;43.69
73112;HTU21D;61301;51.956;5.876;2023-09-07T01:01:59;26.98;43.75
73112;HTU21D;61301;51.956;5.876;2023-09-07T01:04:25;26.95;43.71
73112;HTU21D;61301;51.956;5.876;2023-09-07T01:06:56;26.94;43.92
73112;HTU21D;61301;51.956;5.876;2023-09-07T01:09:29;26.90;43.97
73112;HTU21D;61301;51.956;5.876;2023-09-07T01:11:56;26.85;44.18
73112;HTU21D;61301;51.956;5.876;2023-09-07T01:14:22;26.80;44.24
73112;HTU21D;61301;51.956;5.876;2023-09-07T01:16:49;26.73;44.45
73112;HTU21D;61301;51.956;5.876;2023-09-07T01:19:16;26.69;44.54
73112;HTU21D;61301;51.956;5.876;2023-09-07T01:21:42;26.61;44.74
73112;HTU21D;61301;51.956;5.876;2023-09-07T01:24:10;26.55;44.92
73112;HTU21D;61301;51.956;5.876;2023-09-07T01:26:38;26.52;45.03
73112;HTU21D;61301;51.956;5.876;2023-09-07T01:29:06;26.47;45.16
73112;HTU21D;61301;51.956;5.876;2023-09-07T01:31:38;26.41;45.40
73112;HTU21D;61301;51.956;5.876;2023-09-07T01:34:05;26.33;45.50
73112;HTU21D;61301;51.956;5.876;2023-09-07T01:36:32;26.27;45.62
73112;HTU21D;61301;51.956;5.876;2023-09-07T01:39:00;26.25;45.69
73112;HTU21D;61301;51.956;5.876;2023-09-07T01:41:27;26.21;45.75
73112;HTU21D;61301;51.956;5.876;2023-09-07T01:43:55;26.16;45.90
73112;HTU21D;61301;51.956;5.876;2023-09-07T01:46:21;26.11;46.06
73112;HTU21D;61301;51.956;5.876;2023-09-07T01:48:47;26.04;46.22
73112;HTU21D;61301;51.956;5.876;2023-09-07T01:51:13;25.99;46.27
73112;HTU21D;61301;51.956;5.876;2023-09-07T01:53:41;25.93;46.47
73112;HTU21D;61301;51.956;5.876;2023-09-07T01:56:07;25.94;46.55
73112;HTU21D;61301;51.956;5.876;2023-09-07T01:58:33;25.93;46.55
73112;HTU21D;61301;51.956;5.876;2023-09-07T02:01:00;25.89;46.80
73112;HTU21D;61301;51.956;5.876;2023-09-07T02:03:26;25.84;46.81
73112;HTU21D;61301;51.956;5.876;2023-09-07T02:05:53;25.82;46.73
73112;HTU21D;61301;51.956;5.876;2023-09-07T02:08:19;25.82;46.70
73112;HTU21D;61301;51.956;5.876;2023-09-07T02:10:46;25.82;46.70
73112;HTU21D;61301;51.956;5.876;2023-09-07T02:13:12;25.82;46.81
73112;HTU21D;61301;51.956;5.876;2023-09-07T02:15:38;25.79;46.80
73112;HTU21D;61301;51.956;5.876;2023-09-07T02:18:07;25.77;46.98
73112;HTU21D;61301;51.956;5.876;2023-09-07T02:20:33;25.74;47.15
73112;HTU21D;61301;51.956;5.876;2023-09-07T02:23:00;25.69;47.21
73112;HTU21D;61301;51.956;5.876;2023-09-07T02:25:26;25.64;47.25
73112;HTU21D;61301;51.956;5.876;2023-09-07T02:27:53;25.58;47.79
73112;HTU21D;61301;51.956;5.876;2023-09-07T02:30:19;25.52;47.83
73112;HTU21D;61301;51.956;5.876;2023-09-07T02:32:45;25.50;47.83
73112;HTU21D;61301;51.956;5.876;2023-09-07T02:35:11;25.47;47.74
73112;HTU21D;61301;51.956;5.876;2023-09-07T02:37:39;25.44;47.95
73112;HTU21D;61301;51.956;5.876;2023-09-07T02:40:06;25.37;48.08
73112;HTU21D;61301;51.956;5.876;2023-09-07T02:42:34;25.32;48.00
73112;HTU21D;61301;51.956;5.876;2023-09-07T02:45:00;25.31;48.05
73112;HTU21D;61301;51.956;5.876;2023-09-07T02:47:26;25.29;48.04
73112;HTU21D;61301;51.956;5.876;2023-09-07T02:49:53;25.29;47.96
73112;HTU21D;61301;51.956;5.876;2023-09-07T02:52:19;25.29;48.12
73112;HTU21D;61301;51.956;5.876;2023-09-07T02:54:45;25.28;48.17
73112;HTU21D;61301;51.956;5.876;2023-09-07T02:57:12;25.25;48.21
73112;HTU21D;61301;51.956;5.876;2023-09-07T02:59:39;25.25;48.21
73112;HTU21D;61301;51.956;5.876;2023-09-07T03:02:05;25.23;48.21
73112;HTU21D;61301;51.956;5.876;2023-09-07T03:04:33;25.21;48.20
73112;HTU21D;61301;51.956;5.876;2023-09-07T03:07:00;25.20;48.21
73112;HTU21D;61301;51.956;5.876;2023-09-07T03:09:27;25.18;48.31
73112;HTU21D;61301;51.956;5.876;2023-09-07T03:11:53;25.15;48.44
73112;HTU21D;61301;51.956;5.876;2023-09-07T03:14:19;25.10;48.62
73112;HTU21D;61301;51.956;5.876;2023-09-07T03:16:45;25.06;48.75
73112;HTU21D;61301;51.956;5.876;2023-09-07T03:19:11;25.03;48.84
73112;HTU21D;61301;51.956;5.876;2023-09-07T03:21:37;24.99;48.81
73112;HTU21D;61301;51.956;5.876;2023-09-07T03:24:04;24.94;48.92
73112;HTU21D;61301;51.956;5.876;2023-09-07T03:26:31;24.92;48.82
73112;HTU21D;61301;51.956;5.876;2023-09-07T03:28:58;24.90;49.06
73112;HTU21D;61301;51.956;5.876;2023-09-07T03:31:24;24.87;49.01
73112;HTU21D;61301;51.956;5.876;2023-09-07T03:33:51;24.83;49.21
73112;HTU21D;61301;51.956;5.876;2023-09-07T03:36:17;24.82;49.18
73112;HTU21D;61301;51.956;5.876;2023-09-07T03:38:43;24.79;49.18
73112;HTU21D;61301;51.956;5.876;2023-09-07T03:41:10;24.79;49.15
73112;HTU21D;61301;51.956;5.876;2023-09-07T03:43:36;24.77;49.25
73112;HTU21D;61301;51.956;5.876;2023-09-07T03:46:02;24.76;49.27
73112;HTU21D;61301;51.956;5.876;2023-09-07T03:48:28;24.75;49.17
73112;HTU21D;61301;51.956;5.876;2023-09-07T03:50:54;24.73;49.18
73112;HTU21D;61301;51.956;5.876;2023-09-07T03:53:20;24.69;49.34
73112;HTU21D;61301;51.956;5.876;2023-09-07T03:55:46;24.66;49.30
73112;HTU21D;61301;51.956;5.876;2023-09-07T03:58:15;24.64;49.32
73112;HTU21D;61301;51.956;5.876;2023-09-07T04:00:44;24.60;49.40
73112;HTU21D;61301;51.956;5.876;2023-09-07T04:03:10;24.58;49.42
73112;HTU21D;61301;51.956;5.876;2023-09-07T04:05:37;24.56;49.40
73112;HTU21D;61301;51.956;5.876;2023-09-07T04:08:05;24.55;49.46
73112;HTU21D;61301;51.956;5.876;2023-09-07T04:10:31;24.53;49.51
73112;HTU21D;61301;51.956;5.876;2023-09-07T04:12:57;24.50;49.50
73112;HTU21D;61301;51.956;5.876;2023-09-07T04:15:23;24.47;49.50
73112;HTU21D;61301;51.956;5.876;2023-09-07T04:17:51;24.49;49.42
73112;HTU21D;61301;51.956;5.876;2023-09-07T04:20:17;24.47;49.40
73112;HTU21D;61301;51.956;5.876;2023-09-07T04:22:43;24.45;49.47
73112;HTU21D;61301;51.956;5.876;2023-09-07T04:25:09;24.42;49.47
73112;HTU21D;61301;51.956;5.876;2023-09-07T04:27:35;24.36;49.70
73112;HTU21D;61301;51.956;5.876;2023-09-07T04:30:01;24.33;49.76
73112;HTU21D;61301;51.956;5.876;2023-09-07T04:32:28;24.28;49.92
73112;HTU21D;61301;51.956;5.876;2023-09-07T04:34:56;24.24;50.05
73112;HTU21D;61301;51.956;5.876;2023-09-07T04:37:23;24.20;50.07
73112;HTU21D;61301;51.956;5.876;2023-09-07T04:39:52;24.17;50.40
73112;HTU21D;61301;51.956;5.876;2023-09-07T04:42:20;24.13;50.27
73112;HTU21D;61301;51.956;5.876;2023-09-07T04:44:47;24.09;50.50
73112;HTU21D;61301;51.956;5.876;2023-09-07T04:47:13;24.04;50.82
73112;HTU21D;61301;51.956;5.876;2023-09-07T04:49:41;24.04;50.92
73112;HTU21D;61301;51.956;5.876;2023-09-07T04:52:08;24.00;51.07
73112;HTU21D;61301;51.956;5.876;2023-09-07T04:54:35;23.96;51.10
73112;HTU21D;61301;51.956;5.876;2023-09-07T04:57:01;23.96;51.11
73112;HTU21D;61301;51.956;5.876;2023-09-07T04:59:27;23.96;51.14
73112;HTU21D;61301;51.956;5.876;2023-09-07T05:01:53;23.94;51.04
73112;HTU21D;61301;51.956;5.876;2023-09-07T05:04:19;23.91;51.27
73112;HTU21D;61301;51.956;5.876;2023-09-07T05:06:45;23.88;51.46
73112;HTU21D;61301;51.956;5.876;2023-09-07T05:09:12;23.83;51.83
73112;HTU21D;61301;51.956;5.876;2023-09-07T05:11:38;23.81;52.05
73112;HTU21D;61301;51.956;5.876;2023-09-07T05:14:04;23.72;52.43
73112;HTU21D;61301;51.956;5.876;2023-09-07T05:16:30;23.68;52.46
73112;HTU21D;61301;51.956;5.876;2023-09-07T05:18:56;23.68;52.60
73112;HTU21D;61301;51.956;5.876;2023-09-07T05:21:23;23.69;52.42
73112;HTU21D;61301;51.956;5.876;2023-09-07T05:23:49;23.70;52.23
73112;HTU21D;61301;51.956;5.876;2023-09-07T05:26:20;23.77;52.35
73112;HTU21D;61301;51.956;5.876;2023-09-07T05:28:47;23.75;52.20
73112;HTU21D;61301;51.956;5.876;2023-09-07T05:31:14;23.77;52.30
73112;HTU21D;61301;51.956;5.876;2023-09-07T05:33:40;23.79;52.27
73112;HTU21D;61301;51.956;5.876;2023-09-07T05:36:06;23.79;52.46
73112;HTU21D;61301;51.956;5.876;2023-09-07T05:38:33;23.80;52.55
73112;HTU21D;61301;51.956;5.876;2023-09-07T05:40:59;23.77;52.71
73112;HTU21D;61301;51.956;5.876;2023-09-07T05:43:25;23.79;52.77
73112;HTU21D;61301;51.956;5.876;2023-09-07T05:45:51;23.81;52.71
73112;HTU21D;61301;51.956;5.876;2023-09-07T05:48:17;23.84;52.72
73112;HTU21D;61301;51.956;5.876;2023-09-07T05:50:43;23.85;52.72
73112;HTU21D;61301;51.956;5.876;2023-09-07T05:53:10;23.88;52.72
73112;HTU21D;61301;51.956;5.876;2023-09-07T05:55:36;23.90;52.77
73112;HTU21D;61301;51.956;5.876;2023-09-07T05:58:07;23.96;52.87
73112;HTU21D;61301;51.956;5.876;2023-09-07T06:00:37;23.98;52.65
73112;HTU21D;61301;51.956;5.876;2023-09-07T06:03:06;24.00;52.73
73112;HTU21D;61301;51.956;5.876;2023-09-07T06:05:34;24.03;52.69
73112;HTU21D;61301;51.956;5.876;2023-09-07T06:08:00;24.09;52.65
73112;HTU21D;61301;51.956;5.876;2023-09-07T06:10:30;24.15;52.59
73112;HTU21D;61301;51.956;5.876;2023-09-07T06:12:57;24.18;52.55
73112;HTU21D;61301;51.956;5.876;2023-09-07T06:15:25;24.23;52.61
73112;HTU21D;61301;51.956;5.876;2023-09-07T06:17:52;24.27;52.72
73112;HTU21D;61301;51.956;5.876;2023-09-07T06:20:18;24.31;52.67
73112;HTU21D;61301;51.956;5.876;2023-09-07T06:22:45;24.35;52.56
73112;HTU21D;61301;51.956;5.876;2023-09-07T06:25:12;24.43;52.46
73112;HTU21D;61301;51.956;5.876;2023-09-07T06:27:38;24.43;52.48
73112;HTU21D;61301;51.956;5.876;2023-09-07T06:30:08;24.50;52.49
73112;HTU21D;61301;51.956;5.876;2023-09-07T06:32:35;24.53;52.36
73112;HTU21D;61301;51.956;5.876;2023-09-07T06:35:02;24.62;52.21
73112;HTU21D;61301;51.956;5.876;2023-09-07T06:37:28;24.72;52.02
73112;HTU21D;61301;51.956;5.876;2023-09-07T06:39:54;24.79;51.89
73112;HTU21D;61301;51.956;5.876;2023-09-07T06:42:20;24.88;51.75
73112;HTU21D;61301;51.956;5.876;2023-09-07T06:44:52;25.01;51.53
73112;HTU21D;61301;51.956;5.876;2023-09-07T06:47:18;25.10;51.24
73112;HTU21D;61301;51.956;5.876;2023-09-07T06:49:44;25.21;50.93
73112;HTU21D;61301;51.956;5.876;2023-09-07T06:52:12;25.37;50.57
73112;HTU21D;61301;51.956;5.876;2023-09-07T06:54:38;25.44;50.47
73112;HTU21D;61301;51.956;5.876;2023-09-07T06:57:08;25.48;50.21
73112;HTU21D;61301;51.956;5.876;2023-09-07T06:59:37;25.62;50.02
73112;HTU21D;61301;51.956;5.876;2023-09-07T07:02:03;25.65;49.38
73112;HTU21D;61301;51.956;5.876;2023-09-07T07:04:31;25.75;49.14
73112;HTU21D;61301;51.956;5.876;2023-09-07T07:06:57;25.83;49.02
73112;HTU21D;61301;51.956;5.876;2023-09-07T07:09:24;25.91;48.70
73112;HTU21D;61301;51.956;5.876;2023-09-07T07:11:50;26.03;48.60
73112;HTU21D;61301;51.956;5.876;2023-09-07T07:14:16;26.17;48.16
73112;HTU21D;61301;51.956;5.876;2023-09-07T07:16:43;26.18;47.93
73112;HTU21D;61301;51.956;5.876;2023-09-07T07:19:09;26.31;47.28
73112;HTU21D;61301;51.956;5.876;2023-09-07T07:21:35;26.31;47.31
73112;HTU21D;61301;51.956;5.876;2023-09-07T07:24:03;26.49;47.37
73112;HTU21D;61301;51.956;5.876;2023-09-07T07:26:32;26.57;47.15
73112;HTU21D;61301;51.956;5.876;2023-09-07T07:28:59;26.71;46.99
73112;HTU21D;61301;51.956;5.876;2023-09-07T07:31:25;26.80;46.69
73112;HTU21D;61301;51.956;5.876;2023-09-07T07:33:52;26.86;46.47
73112;HTU21D;61301;51.956;5.876;2023-09-07T07:36:19;26.96;46.19
73112;HTU21D;61301;51.956;5.876;2023-09-07T07:38:45;27.13;45.97
73112;HTU21D;61301;51.956;5.876;2023-09-07T07:41:11;27.16;45.86
73112;HTU21D;61301;51.956;5.876;2023-09-07T07:43:37;27.28;45.69
73112;HTU21D;61301;51.956;5.876;2023-09-07T07:46:04;27.37;45.12
73112;HTU21D;61301;51.956;5.876;2023-09-07T07:48:31;27.38;44.70
73112;HTU21D;61301;51.956;5.876;2023-09-07T07:51:03;27.40;44.52
73112;HTU21D;61301;51.956;5.876;2023-09-07T07:53:29;27.47;45.02
73112;HTU21D;61301;51.956;5.876;2023-09-07T07:55:57;27.71;44.75
73112;HTU21D;61301;51.956;5.876;2023-09-07T07:58:24;27.85;44.39
73112;HTU21D;61301;51.956;5.876;2023-09-07T08:00:50;27.94;43.74
73112;HTU21D;61301;51.956;5.876;2023-09-07T08:03:21;27.89;44.19
73112;HTU21D;61301;51.956;5.876;2023-09-07T08:05:48;28.09;43.47
73112;HTU21D;61301;51.956;5.876;2023-09-07T08:08:14;28.25;43.42
73112;HTU21D;61301;51.956;5.876;2023-09-07T08:10:45;28.43;42.85
73112;HTU21D;61301;51.956;5.876;2023-09-07T08:13:12;28.50;42.64
73112;HTU21D;61301;51.956;5.876;2023-09-07T08:15:38;28.68;42.78
73112;HTU21D;61301;51.956;5.876;2023-09-07T08:18:06;28.79;42.59
73112;HTU21D;61301;51.956;5.876;2023-09-07T08:20:32;28.84;42.34
73112;HTU21D;61301;51.956;5.876;2023-09-07T08:22:59;28.89;42.85
73112;HTU21D;61301;51.956;5.876;2023-09-07T08:25:27;29.03;42.65
73112;HTU21D;61301;51.956;5.876;2023-09-07T08:27:54;29.16;42.48
73112;HTU21D;61301;51.956;5.876;2023-09-07T08:30:23;29.42;42.66
73112;HTU21D;61301;51.956;5.876;2023-09-07T08:32:51;29.50;40.80
73112;HTU21D;61301;51.956;5.876;2023-09-07T08:35:17;29.38;41.21
73112;HTU21D;61301;51.956;5.876;2023-09-07T08:37:43;29.28;41.55
73112;HTU21D;61301;51.956;5.876;2023-09-07T08:40:09;29.35;41.52
73112;HTU21D;61301;51.956;5.876;2023-09-07T08:42:37;29.42;41.39
73112;HTU21D;61301;51.956;5.876;2023-09-07T08:45:04;29.51;41.39
73112;HTU21D;61301;51.956;5.876;2023-09-07T08:47:34;29.74;41.07
73112;HTU21D;61301;51.956;5.876;2023-09-07T08:50:02;29.94;41.05
73112;HTU21D;61301;51.956;5.876;2023-09-07T08:52:28;30.06;40.38
73112;HTU21D;61301;51.956;5.876;2023-09-07T08:54:58;30.22;40.78
73112;HTU21D;61301;51.956;5.876;2023-09-07T08:57:26;30.24;40.10
73112;HTU21D;61301;51.956;5.876;2023-09-07T08:59:53;30.33;39.91
73112;HTU21D;61301;51.956;5.876;2023-09-07T09:02:19;30.45;40.17
73112;HTU21D;61301;51.956;5.876;2023-09-07T09:04:46;30.60;39.72
73112;HTU21D;61301;51.956;5.876;2023-09-07T09:07:12;30.68;39.48
73112;HTU21D;61301;51.956;5.876;2023-09-07T09:09:38;30.84;38.04
73112;HTU21D;61301;51.956;5.876;2023-09-07T09:12:11;30.97;36.66
73112;HTU21D;61301;51.956;5.876;2023-09-07T09:14:38;30.89;36.85
73112;HTU21D;61301;51.956;5.876;2023-09-07T09:17:04;31.02;36.40
73112;HTU21D;61301;51.956;5.876;2023-09-07T09:19:35;31.16;35.81
73112;HTU21D;61301;51.956;5.876;2023-09-07T09:22:01;31.29;35.89
73112;HTU21D;61301;51.956;5.876;2023-09-07T09:24:33;31.34;36.05
73112;HTU21D;61301;51.956;5.876;2023-09-07T09:27:00;31.31;35.92
73112;HTU21D;61301;51.956;5.876;2023-09-07T09:29:26;31.33;36.13
73112;HTU21D;61301;51.956;5.876;2023-09-07T09:31:53;31.41;35.98
73112;HTU21D;61301;51.956;5.876;2023-09-07T09:34:19;31.43;36.54
73112;HTU21D;61301;51.956;5.876;2023-09-07T09:36:45;31.49;36.28
73112;HTU21D;61301;51.956;5.876;2023-09-07T09:39:21;31.60;36.49
73112;HTU21D;61301;51.956;5.876;2023-09-07T09:41:49;31.73;36.09
73112;HTU21D;61301;51.956;5.876;2023-09-07T09:44:16;31.89;35.66
73112;HTU21D;61301;51.956;5.876;2023-09-07T09:46:43;32.09;34.91
73112;HTU21D;61301;51.956;5.876;2023-09-07T09:49:10;32.22;34.43
73112;HTU21D;61301;51.956;5.876;2023-09-07T09:51:39;32.26;34.90
73112;HTU21D;61301;51.956;5.876;2023-09-07T09:54:06;32.26;34.20
73112;HTU21D;61301;51.956;5.876;2023-09-07T09:56:32;32.40;34.48
73112;HTU21D;61301;51.956;5.876;2023-09-07T09:58:58;32.52;34.28
73112;HTU21D;61301;51.956;5.876;2023-09-07T10:01:24;32.67;33.83
73112;HTU21D;61301;51.956;5.876;2023-09-07T10:03:50;32.82;33.29
73112;HTU21D;61301;51.956;5.876;2023-09-07T10:06:23;32.79;33.08
73112;HTU21D;61301;51.956;5.876;2023-09-07T10:09:07;32.81;33.44
73112;HTU21D;61301;51.956;5.876;2023-09-07T10:11:39;32.88;33.39
73112;HTU21D;61301;51.956;5.876;2023-09-07T10:14:07;32.93;33.05
73112;HTU21D;61301;51.956;5.876;2023-09-07T10:16:50;33.14;33.12
73112;HTU21D;61301;51.956;5.876;2023-09-07T10:19:20;33.25;32.88
73112;HTU21D;61301;51.956;5.876;2023-09-07T10:21:47;33.40;32.20
73112;HTU21D;61301;51.956;5.876;2023-09-07T10:24:30;33.76;32.28
73112;HTU21D;61301;51.956;5.876;2023-09-07T10:27:00;33.87;31.83
73112;HTU21D;61301;51.956;5.876;2023-09-07T10:29:26;33.65;32.10
73112;HTU21D;61301;51.956;5.876;2023-09-07T10:31:53;33.62;32.68
73112;HTU21D;61301;51.956;5.876;2023-09-07T10:34:20;33.79;32.59
73112;HTU21D;61301;51.956;5.876;2023-09-07T10:36:46;33.82;31.19
73112;HTU21D;61301;51.956;5.876;2023-09-07T10:39:13;33.76;31.68
73112;HTU21D;61301;51.956;5.876;2023-09-07T10:41:43;33.75;31.29
73112;HTU21D;61301;51.956;5.876;2023-09-07T10:44:12;33.86;31.52
73112;HTU21D;61301;51.956;5.876;2023-09-07T10:46:40;33.85;30.87
73112;HTU21D;61301;51.956;5.876;2023-09-07T10:49:11;34.00;30.49
73112;HTU21D;61301;51.956;5.876;2023-09-07T10:51:42;34.24;30.33
73112;HTU21D;61301;51.956;5.876;2023-09-07T10:54:16;34.50;30.16
73112;HTU21D;61301;51.956;5.876;2023-09-07T10:56:44;34.37;30.39
73112;HTU21D;61301;51.956;5.876;2023-09-07T10:59:12;34.42;30.60
73112;HTU21D;61301;51.956;5.876;2023-09-07T11:01:39;34.42;29.77
73112;HTU21D;61301;51.956;5.876;2023-09-07T11:04:05;34.31;29.90
73112;HTU21D;61301;51.956;5.876;2023-09-07T11:06:31;34.29;30.46
73112;HTU21D;61301;51.956;5.876;2023-09-07T11:09:00;34.60;29.87
73112;HTU21D;61301;51.956;5.876;2023-09-07T11:11:31;34.90;29.93
73112;HTU21D;61301;51.956;5.876;2023-09-07T11:13:59;35.12;28.99
73112;HTU21D;61301;51.956;5.876;2023-09-07T11:16:25;35.34;28.52
73112;HTU21D;61301;51.956;5.876;2023-09-07T11:18:54;35.53;28.43
73112;HTU21D;61301;51.956;5.876;2023-09-07T11:21:21;35.60;28.74
73112;HTU21D;61301;51.956;5.876;2023-09-07T11:23:47;35.80;27.97
73112;HTU21D;61301;51.956;5.876;2023-09-07T11:26:15;35.62;27.08
73112;HTU21D;61301;51.956;5.876;2023-09-07T11:28:46;35.45;27.76
73112;HTU21D;61301;51.956;5.876;2023-09-07T11:31:12;35.51;27.56
73112;HTU21D;61301;51.956;5.876;2023-09-07T11:33:40;35.42;27.49
73112;HTU21D;61301;51.956;5.876;2023-09-07T11:36:07;35.48;27.34
73112;HTU21D;61301;51.956;5.876;2023-09-07T11:38:36;35.68;26.97
73112;HTU21D;61301;51.956;5.876;2023-09-07T11:41:03;35.90;26.71
73112;HTU21D;61301;51.956;5.876;2023-09-07T11:43:29;36.13;26.36
73112;HTU21D;61301;51.956;5.876;2023-09-07T11:45:55;35.96;26.65
73112;HTU21D;61301;51.956;5.876;2023-09-07T11:48:21;35.96;27.02
73112;HTU21D;61301;51.956;5.876;2023-09-07T11:50:47;36.01;27.56
73112;HTU21D;61301;51.956;5.876;2023-09-07T11:53:13;36.26;27.80
73112;HTU21D;61301;51.956;5.876;2023-09-07T11:55:39;36.34;27.36
73112;HTU21D;61301;51.956;5.876;2023-09-07T11:58:06;36.19;27.23
73112;HTU21D;61301;51.956;5.876;2023-09-07T12:00:32;36.40;27.56
73112;HTU21D;61301;51.956;5.876;2023-09-07T12:02:59;36.56;27.36
73112;HTU21D;61301;51.956;5.876;2023-09-07T12:05:25;36.72;27.18
73112;HTU21D;61301;51.956;5.876;2023-09-07T12:07:51;36.95;26.80
73112;HTU21D;61301;51.956;5.876;2023-09-07T12:10:17;36.93;26.49
73112;HTU21D;61301;51.956;5.876;2023-09-07T12:12:43;37.18;26.03
73112;HTU21D;61301;51.956;5.876;2023-09-07T12:15:10;37.46;26.08
73112;HTU21D;61301;51.956;5.876;2023-09-07T12:17:39;37.54;25.23
73112;HTU21D;61301;51.956;5.876;2023-09-07T12:20:06;37.46;25.39
73112;HTU21D;61301;51.956;5.876;2023-09-07T12:22:36;37.22;24.78
73112;HTU21D;61301;51.956;5.876;2023-09-07T12:25:06;37.14;25.43
73112;HTU21D;61301;51.956;5.876;2023-09-07T12:27:33;37.21;25.69
73112;HTU21D;61301;51.956;5.876;2023-09-07T12:30:01;37.38;25.56
73112;HTU21D;61301;51.956;5.876;2023-09-07T12:32:28;37.48;24.43
73112;HTU21D;61301;51.956;5.876;2023-09-07T12:34:54;37.32;24.98
73112;HTU21D;61301;51.956;5.876;2023-09-07T12:37:20;37.54;25.85
73112;HTU21D;61301;51.956;5.876;2023-09-07T12:39:49;37.61;24.07
73112;HTU21D;61301;51.956;5.876;2023-09-07T12:42:16;37.35;24.56
73112;HTU21D;61301;51.956;5.876;2023-09-07T12:44:42;37.15;25.26
73112;HTU21D;61301;51.956;5.876;2023-09-07T12:47:08;36.98;25.62
73112;HTU21D;61301;51.956;5.876;2023-09-07T12:49:34;37.13;25.20
73112;HTU21D;61301;51.956;5.876;2023-09-07T12:52:00;37.20;25.14
73112;HTU21D;61301;51.956;5.876;2023-09-07T12:54:27;37.29;25.57
73112;HTU21D;61301;51.956;5.876;2023-09-07T12:56:53;37.29;25.37
73112;HTU21D;61301;51.956;5.876;2023-09-07T12:59:19;37.46;25.26
73112;HTU21D;61301;51.956;5.876;2023-09-07T13:01:45;37.38;25.20
73112;HTU21D;61301;51.956;5.876;2023-09-07T13:04:13;37.36;25.05
73112;HTU21D;61301;51.956;5.876;2023-09-07T13:06:39;37.33;24.91
73112;HTU21D;61301;51.956;5.876;2023-09-07T13:09:05;37.40;24.74
73112;HTU21D;61301;51.956;5.876;2023-09-07T13:11:31;37.50;24.66
73112;HTU21D;61301;51.956;5.876;2023-09-07T13:13:57;37.56;24.41
73112;HTU21D;61301;51.956;5.876;2023-09-07T13:16:23;37.36;25.00
73112;HTU21D;61301;51.956;5.876;2023-09-07T13:18:52;37.40;25.91
73112;HTU21D;61301;51.956;5.876;2023-09-07T13:21:18;37.58;25.09
73112;HTU21D;61301;51.956;5.876;2023-09-07T13:23:45;37.72;25.16
73112;HTU21D;61301;51.956;5.876;2023-09-07T13:26:12;37.79;25.05
73112;HTU21D;61301;51.956;5.876;2023-09-07T13:28:38;37.76;25.10
73112;HTU21D;61301;51.956;5.876;2023-09-07T13:31:04;37.88;25.09
73112;HTU21D;61301;51.956;5.876;2023-09-07T13:33:30;37.90;24.88
73112;HTU21D;61301;51.956;5.876;2023-09-07T13:35:56;37.97;25.02
73112;HTU21D;61301;51.956;5.876;2023-09-07T13:38:23;38.17;25.04
73112;HTU21D;61301;51.956;5.876;2023-09-07T13:40:49;38.21;24.97
73112;HTU21D;61301;51.956;5.876;2023-09-07T13:43:15;38.34;24.68
73112;HTU21D;61301;51.956;5.876;2023-09-07T13:45:41;38.33;24.78
73112;HTU21D;61301;51.956;5.876;2023-09-07T13:48:08;38.23;24.41
73112;HTU21D;61301;51.956;5.876;2023-09-07T13:50:34;38.14;24.59
73112;HTU21D;61301;51.956;5.876;2023-09-07T13:53:00;38.16;24.36
73112;HTU21D;61301;51.956;5.876;2023-09-07T13:55:26;37.96;24.26
73112;HTU21D;61301;51.956;5.876;2023-09-07T13:57:52;37.93;24.48
73112;HTU21D;61301;51.956;5.876;2023-09-07T14:00:18;38.07;24.59
73112;HTU21D;61301;51.956;5.876;2023-09-07T14:02:44;38.23;24.88
73112;HTU21D;61301;51.956;5.876;2023-09-07T14:05:10;38.43;24.44
73112;HTU21D;61301;51.956;5.876;2023-09-07T14:07:36;38.61;24.81
73112;HTU21D;61301;51.956;5.876;2023-09-07T14:10:03;38.74;23.75
73112;HTU21D;61301;51.956;5.876;2023-09-07T14:12:29;38.80;24.05
73112;HTU21D;61301;51.956;5.876;2023-09-07T14:14:55;38.85;23.77
73112;HTU21D;61301;51.956;5.876;2023-09-07T14:17:21;38.68;23.53
73112;HTU21D;61301;51.956;5.876;2023-09-07T14:19:47;38.76;23.59
73112;HTU21D;61301;51.956;5.876;2023-09-07T14:22:13;38.67;23.53
73112;HTU21D;61301;51.956;5.876;2023-09-07T14:24:39;38.59;23.47
73112;HTU21D;61301;51.956;5.876;2023-09-07T14:27:05;38.38;23.33
73112;HTU21D;61301;51.956;5.876;2023-09-07T14:29:32;38.24;23.62
73112;HTU21D;61301;51.956;5.876;2023-09-07T14:31:58;38.20;24.14
73112;HTU21D;61301;51.956;5.876;2023-09-07T14:34:23;38.33;24.17
73112;HTU21D;61301;51.956;5.876;2023-09-07T14:36:49;38.54;24.26
73112;HTU21D;61301;51.956;5.876;2023-09-07T14:39:15;38.81;23.66
73112;HTU21D;61301;51.956;5.876;2023-09-07T14:41:43;38.97;23.40
73112;HTU21D;61301;51.956;5.876;2023-09-07T14:44:09;38.98;23.32
73112;HTU21D;61301;51.956;5.876;2023-09-07T14:46:36;38.99;23.08
73112;HTU21D;61301;51.956;5.876;2023-09-07T14:49:02;39.11;23.46
73112;HTU21D;61301;51.956;5.876;2023-09-07T14:51:28;39.19;23.18
73112;HTU21D;61301;51.956;5.876;2023-09-07T14:53:54;39.14;23.17
73112;HTU21D;61301;51.956;5.876;2023-09-07T14:56:20;39.22;23.20
73112;HTU21D;61301;51.956;5.876;2023-09-07T14:58:46;39.09;22.81
73112;HTU21D;61301;51.956;5.876;2023-09-07T15:01:12;38.98;22.89
73112;HTU21D;61301;51.956;5.876;2023-09-07T15:03:38;38.86;23.25
73112;HTU21D;61301;51.956;5.876;2023-09-07T15:06:06;38.92;23.46
73112;HTU21D;61301;51.956;5.876;2023-09-07T15:08:33;38.96;22.53
73112;HTU21D;61301;51.956;5.876;2023-09-07T15:10:59;38.79;23.09
73112;HTU21D;61301;51.956;5.876;2023-09-07T15:13:26;38.78;23.62